Time;durP1;ratioP1;P1;durP2;ratioP2;P2;SDS_P1;SDS_P2;PMS_P1;PMS_P2;Temp;Humidity;BMP_temperature;BMP_pressure;BME280_temperature;BME280_humidity;BME280_pressure;Samples;Min_cycle;Max_cycle;Signal;HPM_P1;HPM_P2
2021/11/24 00:01:44;;;;;;;85.85;21.02;;;5.60;99.90;;;;;;5098194;28;20025;-71
2021/11/24 00:04:12;;;;;;;91.57;21.80;;;5.50;99.90;;;;;;5097380;28;20024;-71
2021/11/24 00:06:40;;;;;;;80.22;21.00;;;5.50;99.90;;;;;;5098082;28;20020;-71
2021/11/24 00:09:08;;;;;;;74.28;19.10;;;5.50;99.90;;;;;;5098132;28;20460;-71
2021/11/24 00:11:36;;;;;;;87.93;22.10;;;5.50;99.90;;;;;;5098160;28;20032;-71
2021/11/24 00:14:03;;;;;;;74.47;18.55;;;5.50;99.90;;;;;;5098154;28;20103;-71
2021/11/24 00:16:30;;;;;;;76.45;21.30;;;5.50;99.90;;;;;;5098044;28;20024;-70
2021/11/24 00:18:58;;;;;;;73.03;20.10;;;5.50;99.90;;;;;;5097981;28;20066;-71
2021/11/24 00:21:25;;;;;;;67.18;17.70;;;5.60;99.90;;;;;;5097895;28;20020;-71
2021/11/24 00:23:52;;;;;;;59.60;17.48;;;5.50;99.90;;;;;;5098988;28;20289;-71
2021/11/24 00:26:20;;;;;;;68.78;18.80;;;5.50;99.90;;;;;;5097672;28;20027;-71
2021/11/24 00:28:47;;;;;;;64.35;17.70;;;5.50;99.90;;;;;;5098766;28;20475;-71
2021/11/24 00:31:15;;;;;;;59.40;16.38;;;5.50;99.90;;;;;;5098674;28;20030;-71
2021/11/24 00:33:42;;;;;;;55.03;15.77;;;5.50;99.90;;;;;;5099248;28;20020;-71
2021/11/24 00:36:10;;;;;;;60.45;17.27;;;5.50;99.90;;;;;;5098858;28;20024;-71
2021/11/24 00:38:37;;;;;;;64.72;17.13;;;5.60;99.90;;;;;;5098910;28;20465;-71
2021/11/24 00:41:04;;;;;;;60.72;18.25;;;5.50;99.90;;;;;;5097909;28;20069;-71
2021/11/24 00:43:31;;;;;;;57.40;16.52;;;5.60;99.90;;;;;;5098156;28;20055;-71
2021/11/24 00:45:59;;;;;;;60.22;18.38;;;5.50;99.90;;;;;;5098103;28;20296;-71
2021/11/24 00:48:27;;;;;;;62.17;18.67;;;5.50;99.90;;;;;;5097898;28;20051;-71
2021/11/24 00:50:55;;;;;;;64.60;19.48;;;5.50;99.90;;;;;;5097372;28;20024;-71
2021/11/24 00:53:22;;;;;;;59.55;17.70;;;5.50;99.90;;;;;;5097394;28;20028;-71
2021/11/24 00:55:49;;;;;;;70.05;19.13;;;5.50;99.90;;;;;;5097128;28;20048;-71
2021/11/24 00:58:18;;;;;;;63.53;17.80;;;5.60;99.90;;;;;;5096214;28;20443;-71
2021/11/24 01:00:46;;;;;;;65.88;18.63;;;5.60;99.90;;;;;;5097514;28;20024;-71
2021/11/24 01:03:13;;;;;;;78.88;21.23;;;5.60;99.90;;;;;;5098683;28;20051;-71
2021/11/24 01:05:48;;;;;;;61.90;19.58;;;5.60;99.90;;;;;;5098012;28;20044;-71
2021/11/24 01:08:16;;;;;;;71.82;18.52;;;5.60;99.90;;;;;;5097189;28;20020;-71
2021/11/24 01:10:45;;;;;;;70.50;17.55;;;5.60;99.90;;;;;;5098573;28;20020;-71
2021/11/24 01:13:14;;;;;;;75.10;20.17;;;5.60;99.90;;;;;;5097994;28;20091;-71
2021/11/24 01:15:42;;;;;;;64.20;18.25;;;5.60;99.90;;;;;;5098245;28;20027;-71
2021/11/24 01:18:09;;;;;;;70.93;18.48;;;5.60;99.90;;;;;;5098317;28;20078;-71
2021/11/24 01:20:37;;;;;;;58.05;18.63;;;5.60;99.90;;;;;;5097292;28;20016;-71
2021/11/24 01:23:04;;;;;;;72.93;18.77;;;5.60;99.90;;;;;;5095839;28;20323;-71
2021/11/24 01:25:31;;;;;;;77.75;20.63;;;5.60;99.90;;;;;;5097391;28;20019;-71
2021/11/24 01:28:02;;;;;;;65.88;18.10;;;5.50;99.90;;;;;;5096576;28;20066;-71
2021/11/24 01:30:30;;;;;;;70.35;18.83;;;5.50;99.90;;;;;;5096809;28;20028;-71
2021/11/24 01:32:57;;;;;;;57.20;16.50;;;5.60;99.90;;;;;;5097359;28;20016;-71
2021/11/24 01:35:25;;;;;;;67.55;18.70;;;5.50;99.90;;;;;;5097198;28;20085;-71
2021/11/24 01:37:53;;;;;;;63.83;18.70;;;5.50;99.90;;;;;;5096658;28;20023;-71
2021/11/24 01:40:20;;;;;;;62.40;18.08;;;5.50;99.90;;;;;;5097186;28;20420;-71
2021/11/24 01:42:47;;;;;;;63.97;18.92;;;5.50;99.90;;;;;;5098099;28;20017;-71
2021/11/24 01:45:20;;;;;;;61.47;18.83;;;5.60;99.90;;;;;;5097844;28;20020;-71
2021/11/24 01:47:49;;;;;;;78.30;19.15;;;5.50;99.90;;;;;;5097566;28;20020;-71
2021/11/24 01:50:18;;;;;;;68.97;17.67;;;5.50;99.90;;;;;;5097541;28;20030;-71
2021/11/24 01:52:46;;;;;;;64.75;17.45;;;5.50;99.90;;;;;;5097528;28;20366;-71
2021/11/24 01:55:15;;;;;;;62.53;17.25;;;5.50;99.90;;;;;;5097537;28;20075;-71
2021/11/24 01:57:50;;;;;;;56.13;18.58;;;5.50;99.90;;;;;;5095653;28;20055;-71
2021/11/24 02:00:24;;;;;;;57.65;17.13;;;5.50;99.90;;;;;;5096411;28;20058;-71
2021/11/24 02:02:52;;;;;;;69.97;18.27;;;5.50;99.90;;;;;;5097102;28;20012;-71
2021/11/24 02:05:19;;;;;;;66.70;18.85;;;5.50;99.90;;;;;;5095354;28;20031;-71
2021/11/24 02:07:47;;;;;;;67.65;19.00;;;5.50;99.90;;;;;;5096701;28;20410;-71
2021/11/24 02:10:15;;;;;;;66.30;18.58;;;5.50;99.90;;;;;;5095295;28;20439;-71
2021/11/24 02:12:42;;;;;;;71.63;19.73;;;5.50;99.90;;;;;;5096972;28;20097;-71
2021/11/24 02:15:10;;;;;;;64.25;17.42;;;5.50;99.90;;;;;;5097065;28;20024;-71
2021/11/24 02:17:38;;;;;;;69.80;18.77;;;5.50;99.90;;;;;;5096552;28;20462;-71
2021/11/24 02:20:12;;;;;;;54.40;18.08;;;5.50;99.90;;;;;;5097562;28;20028;-71
2021/11/24 02:22:39;;;;;;;48.42;15.30;;;5.50;99.90;;;;;;5097184;28;20078;-70
2021/11/24 02:25:07;;;;;;;51.65;15.60;;;5.50;99.90;;;;;;5097358;28;20020;-71
2021/11/24 02:27:35;;;;;;;49.10;15.30;;;5.50;99.90;;;;;;5097194;28;20016;-71
2021/11/24 02:30:04;;;;;;;53.40;16.05;;;5.50;99.90;;;;;;5097210;28;20012;-71
2021/11/24 02:32:31;;;;;;;52.00;15.60;;;5.50;99.90;;;;;;5100736;28;20095;-71
2021/11/24 02:34:58;;;;;;;53.42;15.70;;;5.50;99.90;;;;;;5101220;28;20024;-71
2021/11/24 02:37:26;;;;;;;61.03;16.40;;;5.50;99.90;;;;;;5100308;28;20023;-71
2021/11/24 02:39:54;;;;;;;51.40;14.70;;;5.50;99.90;;;;;;5100504;28;20355;-71
2021/11/24 02:42:22;;;;;;;47.83;15.55;;;5.50;99.90;;;;;;5099882;28;20020;-71
2021/11/24 02:44:51;;;;;;;50.67;15.02;;;5.50;99.90;;;;;;5098992;28;20020;-71
2021/11/24 02:47:21;;;;;;;51.53;14.05;;;5.50;99.90;;;;;;5100012;28;20428;-71
2021/11/24 02:49:51;;;;;;;48.72;15.18;;;5.50;99.90;;;;;;5099790;28;20049;-71
2021/11/24 02:52:21;;;;;;;54.08;15.20;;;5.50;99.90;;;;;;5099679;28;20024;-71
2021/11/24 02:54:58;;;;;;;43.25;15.27;;;5.50;99.90;;;;;;5099610;28;20420;-71
2021/11/24 02:57:40;;;;;;;49.53;15.20;;;5.60;99.90;;;;;;5100258;28;20389;-71
2021/11/24 03:00:23;;;;;;;48.25;14.38;;;5.60;99.90;;;;;;5100908;28;20020;-71
2021/11/24 03:02:52;;;;;;;51.67;16.52;;;5.50;99.90;;;;;;5100518;28;20020;-71
2021/11/24 03:05:23;;;;;;;48.33;17.05;;;5.60;99.90;;;;;;5100934;28;20019;-71
2021/11/24 03:07:51;;;;;;;49.30;16.20;;;5.60;99.90;;;;;;5099295;28;20069;-71
2021/11/24 03:10:20;;;;;;;49.05;15.80;;;5.50;99.90;;;;;;5100751;28;20020;-71
2021/11/24 03:12:47;;;;;;;55.55;17.52;;;5.60;99.90;;;;;;5100349;28;20324;-71
2021/11/24 03:15:15;;;;;;;50.60;15.23;;;5.60;99.90;;;;;;5099949;28;20016;-71
2021/11/24 03:17:42;;;;;;;53.95;16.83;;;5.60;99.90;;;;;;5098147;28;20051;-71
2021/11/24 03:20:12;;;;;;;47.85;16.25;;;5.60;99.90;;;;;;5099423;28;20024;-71
2021/11/24 03:22:39;;;;;;;51.17;16.63;;;5.60;99.90;;;;;;5098034;28;20016;-71
2021/11/24 03:25:08;;;;;;;59.47;16.85;;;5.60;99.90;;;;;;5099174;28;20446;-71
2021/11/24 03:27:41;;;;;;;51.40;16.38;;;5.60;99.90;;;;;;5098013;28;20020;-71
2021/11/24 03:30:12;;;;;;;56.35;16.85;;;5.60;99.90;;;;;;5098080;28;20024;-71
2021/11/24 03:32:40;;;;;;;57.60;16.60;;;5.60;99.90;;;;;;5099011;28;20016;-71
2021/11/24 03:35:08;;;;;;;51.67;15.40;;;5.60;99.90;;;;;;5100155;28;20020;-71
2021/11/24 03:37:36;;;;;;;57.50;16.88;;;5.60;99.90;;;;;;5099655;28;20023;-71
2021/11/24 03:40:06;;;;;;;57.90;17.77;;;5.60;99.90;;;;;;5100250;28;20022;-71
2021/11/24 03:42:34;;;;;;;52.20;15.45;;;5.60;99.90;;;;;;5098475;28;20416;-71
2021/11/24 03:45:02;;;;;;;49.00;16.70;;;5.60;99.90;;;;;;5099749;28;20106;-71
2021/11/24 03:47:30;;;;;;;59.38;17.58;;;5.60;99.90;;;;;;5098750;28;20016;-71
2021/11/24 03:49:57;;;;;;;52.70;15.95;;;5.60;99.90;;;;;;5099455;28;20066;-71
2021/11/24 03:52:24;;;;;;;51.20;16.15;;;5.60;99.90;;;;;;5098194;28;20016;-71
2021/11/24 03:54:52;;;;;;;54.03;16.42;;;5.60;99.90;;;;;;5098823;28;20129;-71
2021/11/24 03:57:19;;;;;;;56.80;16.48;;;5.60;99.90;;;;;;5098456;28;20016;-71
2021/11/24 03:59:46;;;;;;;50.92;16.35;;;5.60;99.90;;;;;;5097474;28;20073;-71
2021/11/24 04:02:14;;;;;;;45.38;14.45;;;5.60;99.90;;;;;;5098379;28;20128;-71
2021/11/24 04:04:41;;;;;;;52.33;15.75;;;5.60;99.90;;;;;;5097290;28;20077;-71
2021/11/24 04:07:08;;;;;;;49.95;15.02;;;5.60;99.90;;;;;;5097117;28;20020;-71
2021/11/24 04:09:36;;;;;;;46.70;14.73;;;5.60;99.90;;;;;;5098242;28;20030;-71
2021/11/24 04:12:04;;;;;;;42.08;14.20;;;5.60;99.90;;;;;;5098777;28;20099;-71
2021/11/24 04:14:32;;;;;;;35.63;12.73;;;5.60;99.90;;;;;;5098896;28;20515;-71
2021/11/24 04:16:59;;;;;;;43.45;14.30;;;5.60;99.90;;;;;;5099304;28;20027;-71
2021/11/24 04:19:27;;;;;;;44.63;13.32;;;5.60;99.90;;;;;;5097755;28;20454;-71
2021/11/24 04:21:54;;;;;;;45.58;13.30;;;5.60;99.90;;;;;;5099095;28;20016;-71
2021/11/24 04:24:25;;;;;;;49.15;15.43;;;5.60;99.90;;;;;;5097891;28;20477;-71
2021/11/24 04:26:54;;;;;;;56.22;15.27;;;5.70;99.90;;;;;;5098831;28;20016;-71
2021/11/24 04:29:21;;;;;;;56.92;15.75;;;5.60;99.90;;;;;;5099342;28;20407;-71
2021/11/24 04:31:48;;;;;;;52.28;15.50;;;5.60;99.90;;;;;;5098530;28;20095;-71
2021/11/24 04:34:16;;;;;;;51.85;14.85;;;5.60;99.90;;;;;;5098499;28;20028;-71
2021/11/24 04:36:44;;;;;;;51.38;14.98;;;5.70;99.90;;;;;;5097688;28;20024;-71
2021/11/24 04:39:11;;;;;;;48.80;14.85;;;5.70;99.90;;;;;;5098122;28;20031;-71
2021/11/24 04:41:38;;;;;;;51.28;15.18;;;5.70;99.90;;;;;;5097903;28;20020;-71
2021/11/24 04:44:06;;;;;;;50.10;15.80;;;5.60;99.90;;;;;;5096901;28;20043;-71
2021/11/24 04:46:34;;;;;;;47.13;14.35;;;5.70;99.90;;;;;;5097171;28;20028;-71
2021/11/24 04:49:01;;;;;;;42.80;16.13;;;5.60;99.90;;;;;;5097547;28;20053;-71
2021/11/24 04:51:29;;;;;;;39.65;12.80;;;5.70;99.90;;;;;;5096753;28;20323;-71
2021/11/24 04:53:56;;;;;;;41.58;14.90;;;5.70;99.90;;;;;;5096896;28;20074;-71
2021/11/24 04:56:24;;;;;;;42.63;14.40;;;5.70;99.90;;;;;;5098026;28;20347;-71
2021/11/24 04:58:56;;;;;;;45.13;14.75;;;5.60;99.90;;;;;;5098545;28;20024;-71
2021/11/24 05:01:24;;;;;;;42.53;15.38;;;5.70;99.90;;;;;;5098201;28;20027;-71
2021/11/24 05:03:51;;;;;;;38.65;13.88;;;5.60;99.90;;;;;;5097283;28;20026;-71
2021/11/24 05:06:20;;;;;;;41.50;14.43;;;5.60;99.90;;;;;;5096967;28;20324;-71
2021/11/24 05:08:49;;;;;;;44.33;13.68;;;5.60;99.90;;;;;;5098447;28;20030;-71
2021/11/24 05:11:18;;;;;;;42.60;14.35;;;5.60;99.90;;;;;;5097380;28;20020;-71
2021/11/24 05:14:00;;;;;;;43.38;15.20;;;5.60;99.90;;;;;;5097176;28;20480;-71
2021/11/24 05:16:33;;;;;;;41.10;14.35;;;5.60;99.90;;;;;;5097057;28;20028;-71
2021/11/24 05:19:01;;;;;;;44.22;15.20;;;5.60;99.90;;;;;;5095925;28;20024;-71
2021/11/24 05:21:34;;;;;;;40.10;14.80;;;5.60;99.90;;;;;;5097482;28;20069;-71
2021/11/24 05:24:04;;;;;;;41.50;14.93;;;5.60;99.90;;;;;;5096907;28;20065;-71
2021/11/24 05:26:34;;;;;;;41.63;12.20;;;5.60;99.90;;;;;;5095781;28;20058;-71
2021/11/24 05:29:02;;;;;;;42.78;13.00;;;5.60;99.90;;;;;;5097241;28;20028;-71
2021/11/24 05:31:30;;;;;;;36.30;12.88;;;5.60;99.90;;;;;;5096065;28;20317;-71
2021/11/24 05:33:57;;;;;;;41.13;12.98;;;5.60;99.90;;;;;;5097724;28;20024;-71
2021/11/24 05:36:25;;;;;;;48.97;13.93;;;5.60;99.90;;;;;;5097678;28;20078;-71
2021/11/24 05:38:52;;;;;;;48.80;15.88;;;5.60;99.90;;;;;;5097666;28;20016;-71
2021/11/24 05:41:19;;;;;;;49.83;14.32;;;5.60;99.90;;;;;;5098179;28;20016;-71
2021/11/24 05:43:48;;;;;;;49.03;15.57;;;5.60;99.90;;;;;;5096744;28;20024;-71
2021/11/24 05:46:17;;;;;;;45.83;14.05;;;5.60;99.90;;;;;;5097606;28;20420;-71
2021/11/24 05:48:46;;;;;;;49.67;15.77;;;5.60;99.90;;;;;;5097777;28;20437;-71
2021/11/24 05:51:13;;;;;;;44.08;13.93;;;5.60;99.90;;;;;;5096406;28;20024;-71
2021/11/24 05:53:41;;;;;;;42.30;13.57;;;5.60;99.90;;;;;;5097064;28;20343;-71
2021/11/24 05:56:09;;;;;;;49.35;15.82;;;5.60;99.90;;;;;;5095206;28;20052;-71
2021/11/24 05:58:36;;;;;;;37.40;13.25;;;5.60;99.90;;;;;;5096513;28;20028;-71
2021/11/24 06:01:04;;;;;;;35.78;13.35;;;5.60;99.90;;;;;;5097091;28;20023;-71
2021/11/24 06:03:31;;;;;;;39.72;13.18;;;5.60;99.90;;;;;;5097230;28;20024;-71
2021/11/24 06:05:59;;;;;;;36.70;12.48;;;5.60;99.90;;;;;;5097674;28;20016;-71
2021/11/24 06:08:27;;;;;;;30.42;10.77;;;5.60;99.90;;;;;;5101240;28;20100;-71
2021/11/24 06:10:55;;;;;;;28.73;11.43;;;5.60;99.90;;;;;;5099894;28;20028;-71
2021/11/24 06:13:23;;;;;;;31.30;12.20;;;5.60;99.90;;;;;;5100782;28;20028;-71
2021/11/24 06:15:50;;;;;;;31.02;12.15;;;5.60;99.90;;;;;;5101937;28;20110;-71
2021/11/24 06:18:19;;;;;;;37.83;12.75;;;5.70;99.90;;;;;;5101792;28;20024;-71
2021/11/24 06:20:47;;;;;;;32.80;11.55;;;5.70;99.90;;;;;;5101145;28;20320;-71
2021/11/24 06:23:15;;;;;;;34.03;12.50;;;5.60;99.90;;;;;;5100399;28;20372;-70
2021/11/24 06:25:42;;;;;;;29.95;12.07;;;5.60;99.90;;;;;;5101265;28;20027;-71
2021/11/24 06:28:12;;;;;;;32.10;12.05;;;5.60;99.90;;;;;;5101339;28;20031;-71
2021/11/24 06:30:40;;;;;;;27.60;11.43;;;5.60;99.90;;;;;;5100706;28;20061;-71
2021/11/24 06:33:09;;;;;;;31.55;12.10;;;5.60;99.90;;;;;;5100784;28;20028;-71
2021/11/24 06:35:36;;;;;;;34.60;12.50;;;5.60;99.90;;;;;;5098934;28;20028;-71
2021/11/24 06:38:03;;;;;;;30.08;12.25;;;5.60;99.90;;;;;;5100189;28;20149;-71
2021/11/24 06:40:31;;;;;;;31.30;12.90;;;5.60;99.90;;;;;;5100091;28;20366;-71
2021/11/24 06:42:58;;;;;;;33.53;11.98;;;5.60;99.90;;;;;;5098928;28;20020;-71
2021/11/24 06:45:25;;;;;;;34.50;12.77;;;5.60;99.90;;;;;;5098292;28;20020;-71
2021/11/24 06:47:52;;;;;;;36.60;12.95;;;5.60;99.90;;;;;;5100306;28;20048;-71
2021/11/24 06:50:21;;;;;;;35.20;14.02;;;5.60;99.90;;;;;;5100311;28;20063;-71
2021/11/24 06:52:48;;;;;;;34.95;13.23;;;5.60;99.90;;;;;;5100947;28;20034;-71
2021/11/24 06:55:16;;;;;;;32.63;13.20;;;5.60;99.90;;;;;;5100941;28;20040;-71
2021/11/24 06:57:44;;;;;;;34.72;12.73;;;5.60;99.90;;;;;;5101131;28;20513;-71
2021/11/24 07:00:12;;;;;;;34.50;12.82;;;5.60;99.90;;;;;;5101290;28;20020;-71
2021/11/24 07:02:41;;;;;;;39.58;13.55;;;5.50;99.90;;;;;;5099445;28;20111;-71
2021/11/24 07:05:09;;;;;;;34.90;12.82;;;5.50;99.90;;;;;;5098851;28;20028;-71
2021/11/24 07:07:37;;;;;;;38.30;14.60;;;5.50;99.90;;;;;;5098397;28;20024;-71
2021/11/24 07:10:05;;;;;;;36.95;12.93;;;5.50;99.90;;;;;;5099655;28;20017;-71
2021/11/24 07:12:33;;;;;;;34.13;12.65;;;5.50;99.90;;;;;;5099992;28;20031;-71
2021/11/24 07:15:00;;;;;;;31.63;12.40;;;5.60;99.90;;;;;;5098343;28;20047;-71
2021/11/24 07:17:28;;;;;;;36.05;12.95;;;5.60;99.90;;;;;;5097677;28;20101;-71
2021/11/24 07:19:56;;;;;;;38.88;13.65;;;5.60;99.90;;;;;;5099703;28;20021;-71
2021/11/24 07:22:23;;;;;;;34.90;13.73;;;5.60;99.90;;;;;;5098099;28;20031;-71
2021/11/24 07:24:51;;;;;;;34.25;13.75;;;5.60;99.90;;;;;;5100232;28;20016;-71
2021/11/24 07:27:18;;;;;;;37.88;15.75;;;5.60;99.90;;;;;;5100100;28;20034;-71
2021/11/24 07:29:46;;;;;;;37.28;14.02;;;5.60;99.90;;;;;;5100224;28;20024;-71
2021/11/24 07:32:13;;;;;;;34.40;13.88;;;5.60;99.90;;;;;;5100553;28;20343;-71
2021/11/24 07:34:41;;;;;;;37.58;14.15;;;5.60;99.90;;;;;;5100527;28;20024;-71
2021/11/24 07:37:08;;;;;;;39.38;15.02;;;5.60;99.90;;;;;;5100346;28;20020;-71
2021/11/24 07:39:35;;;;;;;34.58;12.93;;;5.70;99.90;;;;;;5100488;28;20020;-71
2021/11/24 07:42:04;;;;;;;39.95;14.50;;;5.70;99.90;;;;;;5099631;28;20042;-71
2021/11/24 07:44:31;;;;;;;33.67;13.02;;;5.70;99.90;;;;;;5097788;28;20028;-71
2021/11/24 07:46:59;;;;;;;33.70;13.20;;;5.70;99.90;;;;;;5099356;28;20047;-71
2021/11/24 07:49:26;;;;;;;40.47;14.30;;;5.70;99.90;;;;;;5097786;28;20331;-71
2021/11/24 07:51:54;;;;;;;33.72;12.95;;;5.70;99.90;;;;;;5097535;28;20049;-71
2021/11/24 07:54:21;;;;;;;39.47;14.43;;;5.70;99.90;;;;;;5098662;28;20305;-70
2021/11/24 07:56:49;;;;;;;33.90;13.48;;;5.80;99.90;;;;;;5098421;28;20054;-70
2021/11/24 07:59:16;;;;;;;30.85;12.07;;;5.80;99.90;;;;;;5098138;28;20408;-71
2021/11/24 08:01:44;;;;;;;29.38;11.60;;;5.80;99.90;;;;;;5098551;28;20024;-68
2021/11/24 08:04:12;;;;;;;35.33;12.45;;;5.80;99.90;;;;;;5099451;28;20046;-69
2021/11/24 08:06:39;;;;;;;35.83;13.18;;;5.80;99.90;;;;;;5099834;28;20019;-72
2021/11/24 08:09:06;;;;;;;36.28;13.23;;;5.80;99.90;;;;;;5099363;28;20420;-72
2021/11/24 08:11:34;;;;;;;37.50;12.93;;;5.90;99.90;;;;;;5099387;28;20440;-72
2021/11/24 08:14:01;;;;;;;33.83;12.40;;;5.90;99.90;;;;;;5099954;28;20016;-72
2021/11/24 08:16:29;;;;;;;30.90;13.13;;;5.90;99.90;;;;;;5098915;28;20028;-72
2021/11/24 08:18:57;;;;;;;35.22;13.35;;;5.90;99.90;;;;;;5098467;28;20032;-72
2021/11/24 08:21:24;;;;;;;29.60;11.77;;;6.00;99.90;;;;;;5098412;28;20403;-71
2021/11/24 08:23:52;;;;;;;29.63;11.20;;;6.00;99.90;;;;;;5097201;28;20111;-71
2021/11/24 08:26:19;;;;;;;28.25;12.07;;;6.00;99.90;;;;;;5096970;28;20031;-71
2021/11/24 08:28:46;;;;;;;27.25;11.77;;;6.10;99.90;;;;;;5096048;28;20032;-71
2021/11/24 08:31:15;;;;;;;30.08;11.93;;;6.10;99.90;;;;;;5096870;28;20324;-71
2021/11/24 08:33:42;;;;;;;26.83;12.00;;;6.20;99.90;;;;;;5097054;28;20028;-72
2021/11/24 08:36:12;;;;;;;25.42;11.02;;;6.20;99.90;;;;;;5098264;28;20301;-72
2021/11/24 08:38:40;;;;;;;26.65;12.10;;;6.20;99.90;;;;;;5098588;28;20058;-73
2021/11/24 08:41:11;;;;;;;32.70;11.60;;;6.30;99.90;;;;;;5097681;28;20047;-72
2021/11/24 08:43:40;;;;;;;27.58;11.82;;;6.30;99.90;;;;;;5098995;28;20413;-72
2021/11/24 08:46:08;;;;;;;27.40;11.73;;;6.30;99.90;;;;;;5098910;28;20415;-72
2021/11/24 08:48:35;;;;;;;28.08;11.65;;;6.40;99.90;;;;;;5097389;28;20028;-72
2021/11/24 08:51:04;;;;;;;28.55;11.65;;;6.40;99.90;;;;;;5098911;28;20394;-72
2021/11/24 08:53:32;;;;;;;25.55;10.77;;;6.50;99.90;;;;;;5099741;28;20269;-72
2021/11/24 08:55:59;;;;;;;27.85;10.50;;;6.50;99.90;;;;;;5097171;28;20340;-72
2021/11/24 08:58:27;;;;;;;23.92;11.02;;;6.50;99.90;;;;;;5095162;28;20024;-67
2021/11/24 09:00:55;;;;;;;22.40;9.85;;;6.60;99.90;;;;;;5096396;28;20024;-67
2021/11/24 09:03:22;;;;;;;24.25;10.35;;;6.60;99.90;;;;;;5098128;28;20069;-67
2021/11/24 09:05:50;;;;;;;23.63;11.05;;;6.60;99.90;;;;;;5097269;28;20020;-67
2021/11/24 09:08:18;;;;;;;24.73;11.00;;;6.70;99.90;;;;;;5097611;28;20036;-67
2021/11/24 09:10:45;;;;;;;25.05;10.70;;;6.70;99.90;;;;;;5097839;28;20048;-67
2021/11/24 09:13:12;;;;;;;26.42;11.82;;;6.70;99.90;;;;;;5097689;28;20024;-68
2021/11/24 09:15:40;;;;;;;24.88;10.80;;;6.70;99.90;;;;;;5096055;28;20020;-67
2021/11/24 09:18:08;;;;;;;24.25;10.32;;;6.80;99.90;;;;;;5096794;28;20115;-67
2021/11/24 09:20:35;;;;;;;23.02;10.50;;;6.80;99.90;;;;;;5096867;28;20439;-68
2021/11/24 09:23:07;;;;;;;23.92;10.75;;;6.90;99.90;;;;;;5098527;28;20020;-67
2021/11/24 09:25:54;;;;;;;28.02;11.77;;;6.90;99.90;;;;;;5098656;28;20308;-68
2021/11/24 09:28:29;;;;;;;21.42;10.07;;;7.00;99.90;;;;;;5098446;28;20024;-68
2021/11/24 09:30:58;;;;;;;23.98;11.13;;;7.00;99.90;;;;;;5097790;28;20031;-68
2021/11/24 09:33:25;;;;;;;21.33;10.00;;;7.00;99.90;;;;;;5097335;28;20063;-71
2021/11/24 09:35:53;;;;;;;23.83;11.27;;;7.10;99.90;;;;;;5097403;28;20027;-71
2021/11/24 09:38:20;;;;;;;23.35;11.57;;;7.10;99.90;;;;;;5095844;28;20024;-71
2021/11/24 09:40:56;;;;;;;24.35;10.27;;;7.10;99.90;;;;;;5095455;28;20308;-71
2021/11/24 09:43:30;;;;;;;20.03;8.90;;;7.20;99.90;;;;;;5097149;28;20347;-71
2021/11/24 09:45:58;;;;;;;21.80;9.23;;;7.10;99.90;;;;;;5097319;28;20020;-71
2021/11/24 09:48:27;;;;;;;23.92;10.68;;;7.20;99.90;;;;;;5095865;28;20053;-71
2021/11/24 09:50:56;;;;;;;24.67;10.55;;;7.20;99.90;;;;;;5097093;28;20035;-71
2021/11/24 09:53:24;;;;;;;21.52;10.00;;;7.20;99.90;;;;;;5098062;28;20367;-71
2021/11/24 09:55:53;;;;;;;29.80;14.27;;;7.20;99.90;;;;;;5097463;28;20043;-71
2021/11/24 09:58:21;;;;;;;29.55;13.27;;;7.20;99.90;;;;;;5098167;28;20016;-71
2021/11/24 10:00:48;;;;;;;22.55;11.13;;;7.20;99.90;;;;;;5097940;28;20018;-71
2021/11/24 10:03:17;;;;;;;21.73;10.35;;;7.20;99.90;;;;;;5096435;28;20020;-71
2021/11/24 10:05:47;;;;;;;21.20;9.05;;;7.30;99.90;;;;;;5097425;28;20028;-71
2021/11/24 10:08:15;;;;;;;19.52;9.07;;;7.20;99.90;;;;;;5096786;28;20041;-71
2021/11/24 10:10:43;;;;;;;18.92;8.85;;;7.30;99.90;;;;;;5097333;28;20099;-71
2021/11/24 10:13:11;;;;;;;17.58;9.27;;;7.30;99.90;;;;;;5097067;28;20046;-70
2021/11/24 10:15:56;;;;;;;22.02;9.15;;;7.30;99.90;;;;;;5096461;28;20020;-71
2021/11/24 10:18:31;;;;;;;;;;;7.40;99.90;;;;;;5095790;28;20027;-71
2021/11/24 10:21:10;;;;;;;20.33;9.57;;;7.40;99.90;;;;;;5096920;28;19904;-71
2021/11/24 10:23:41;;;;;;;21.45;10.18;;;7.40;99.90;;;;;;5096440;28;20103;-71
2021/11/24 10:26:31;;;;;;;21.77;10.73;;;7.40;99.90;;;;;;5096441;28;20098;-71
2021/11/24 10:29:09;;;;;;;18.33;8.77;;;7.40;99.90;;;;;;5096313;28;20024;-70
2021/11/24 10:31:39;;;;;;;19.48;8.95;;;7.40;99.90;;;;;;5096972;28;20050;-71
2021/11/24 10:34:32;;;;;;;21.15;9.90;;;7.40;99.90;;;;;;5097279;28;20053;-71
2021/11/24 10:37:06;;;;;;;21.60;10.15;;;7.40;99.90;;;;;;5097089;28;20020;-71
2021/11/24 10:39:51;;;;;;;22.33;9.77;;;7.40;99.90;;;;;;5097651;28;20031;-71
2021/11/24 10:42:24;;;;;;;15.57;8.32;;;7.40;99.90;;;;;;5097108;28;20438;-71
2021/11/24 10:44:55;;;;;;;17.48;7.82;;;7.40;99.90;;;;;;5097348;28;20121;-71
2021/11/24 10:47:23;;;;;;;19.42;9.27;;;7.40;99.90;;;;;;5096764;28;20027;-70
2021/11/24 10:49:53;;;;;;;18.48;8.68;;;7.40;99.90;;;;;;5095083;28;20032;-71
2021/11/24 10:52:25;;;;;;;18.08;8.73;;;7.40;99.90;;;;;;5097693;28;20155;-71
2021/11/24 10:55:11;;;;;;;20.05;9.60;;;7.50;99.90;;;;;;5098668;28;20055;-71
2021/11/24 10:58:06;;;;;;;17.38;7.47;;;7.50;99.90;;;;;;5100351;28;20050;-71
2021/11/24 11:00:43;;;;;;;16.35;7.45;;;7.50;99.90;;;;;;5100195;28;20176;-70
2021/11/24 11:03:12;;;;;;;17.00;7.68;;;7.60;99.90;;;;;;5099852;28;20031;-71
2021/11/24 11:05:42;;;;;;;22.98;9.63;;;7.70;99.90;;;;;;5098970;28;20492;-71
2021/11/24 11:08:11;;;;;;;15.70;7.65;;;7.70;99.90;;;;;;5100844;28;20024;-70
2021/11/24 11:10:44;;;;;;;15.23;7.22;;;7.60;99.90;;;;;;5100399;28;20023;-70
2021/11/24 11:13:20;;;;;;;16.65;7.30;;;7.60;99.90;;;;;;5101074;28;20044;-76
2021/11/24 11:15:50;;;;;;;17.27;8.15;;;7.60;99.90;;;;;;5100412;28;20387;-77
2021/11/24 11:18:27;;;;;;;14.52;6.93;;;7.60;99.90;;;;;;5099186;28;20119;-72
2021/11/24 11:21:01;;;;;;;12.80;6.93;;;7.60;99.90;;;;;;5100294;28;20016;-70
2021/11/24 11:23:37;;;;;;;14.02;6.65;;;7.60;99.90;;;;;;5101006;28;20028;-68
2021/11/24 11:26:11;;;;;;;13.90;7.07;;;7.60;99.90;;;;;;5099430;28;20016;-68
2021/11/24 11:28:44;;;;;;;13.30;6.65;;;7.60;99.90;;;;;;5099614;28;20028;-71
2021/11/24 11:31:17;;;;;;;12.20;7.00;;;7.60;99.90;;;;;;5099659;28;20028;-70
2021/11/24 11:33:51;;;;;;;13.70;6.50;;;7.70;99.90;;;;;;5099903;28;20103;-70
2021/11/24 11:36:19;;;;;;;14.18;7.10;;;7.70;99.90;;;;;;5097951;28;20035;-71
2021/11/24 11:38:48;;;;;;;11.95;6.30;;;7.80;99.90;;;;;;5099292;28;20024;-69
2021/11/24 11:41:18;;;;;;;13.50;7.25;;;7.80;99.90;;;;;;5099273;28;20062;-70
2021/11/24 11:43:51;;;;;;;11.50;6.80;;;7.80;99.90;;;;;;5098974;28;20043;-70
2021/11/24 11:46:20;;;;;;;12.55;7.32;;;7.80;99.90;;;;;;5098268;28;20085;-70
2021/11/24 11:48:51;;;;;;;12.48;6.68;;;7.90;99.90;;;;;;5100400;28;20051;-71
2021/11/24 11:51:29;;;;;;;14.80;6.90;;;7.90;99.90;;;;;;5098611;28;20020;-71
2021/11/24 11:53:56;;;;;;;12.98;6.90;;;8.00;99.90;;;;;;5098603;28;20024;-72
2021/11/24 11:56:35;;;;;;;10.75;5.68;;;8.00;99.90;;;;;;5098375;28;20146;-71
2021/11/24 11:59:10;;;;;;;12.73;5.75;;;8.00;99.90;;;;;;5099607;28;20020;-71
2021/11/24 12:01:43;;;;;;;11.27;5.95;;;8.00;99.90;;;;;;5100038;28;20122;-71
2021/11/24 12:04:17;;;;;;;15.18;5.72;;;8.00;99.90;;;;;;5099428;28;20050;-69
2021/11/24 12:06:53;;;;;;;11.75;6.25;;;8.10;99.90;;;;;;5098445;28;20024;-71
2021/11/24 12:09:30;;;;;;;15.55;6.32;;;8.10;99.90;;;;;;5099071;28;20099;-85
2021/11/24 12:12:10;;;;;;;10.52;5.07;;;8.10;99.90;;;;;;5098942;28;20051;-71
2021/11/24 12:14:59;;;;;;;12.27;5.18;;;8.10;99.90;;;;;;5098484;28;20028;-70
2021/11/24 12:17:34;;;;;;;8.13;3.70;;;8.10;99.90;;;;;;5098495;28;20508;-71
2021/11/24 12:20:14;;;;;;;7.80;4.00;;;8.10;99.90;;;;;;5098163;28;20085;-69
2021/11/24 12:22:52;;;;;;;7.65;3.03;;;8.10;99.90;;;;;;5098160;28;20024;-72
2021/11/24 12:25:20;;;;;;;10.18;2.90;;;8.10;99.90;;;;;;5099643;28;20016;-71
2021/11/24 12:28:01;;;;;;;5.85;2.63;;;8.10;99.90;;;;;;5099557;28;20427;-71
2021/11/24 12:33:15;;;;;;;4.57;2.63;;;8.00;99.90;;;;;;5098980;28;20024;-71
2021/11/24 12:35:50;;;;;;;4.47;1.95;;;8.00;99.90;;;;;;5099612;28;20030;-69
2021/11/24 12:38:21;;;;;;;2.95;1.30;;;8.00;99.90;;;;;;5098879;28;20103;-70
2021/11/24 12:40:52;;;;;;;2.22;1.02;;;7.90;99.90;;;;;;5097653;28;20016;-70
2021/11/24 12:43:24;;;;;;;2.25;0.90;;;7.90;99.90;;;;;;5097818;28;20016;-71
2021/11/24 12:46:26;;;;;;;4.55;1.23;;;7.80;99.90;;;;;;5097718;28;20016;-71
2021/11/24 12:49:01;;;;;;;2.30;0.90;;;7.70;99.90;;;;;;5097816;28;20054;-71
2021/11/24 12:51:34;;;;;;;2.63;1.00;;;7.70;99.90;;;;;;5097851;28;20024;-71
2021/11/24 12:54:06;;;;;;;3.13;0.80;;;7.70;99.90;;;;;;5098168;28;20059;-69
2021/11/24 12:56:48;;;;;;;3.90;1.15;;;7.70;99.90;;;;;;5097409;28;20051;-70